sensor_id;sensor_type;location;lat;lon;timestamp;pressure;altitude;pressure_sealevel;temperature;humidity
83896;BME280;74045;42.812;74.638;2024-02-26T00:01:38;91875.69;;;-7.83;80.53
83896;BME280;74045;42.812;74.638;2024-02-26T00:04:04;91910.66;;;-7.63;80.52
83896;BME280;74045;42.812;74.638;2024-02-26T00:06:30;91792.38;;;-8.44;81.13
83896;BME280;74045;42.812;74.638;2024-02-26T00:08:56;91911.63;;;-7.59;81.62
83896;BME280;74045;42.812;74.638;2024-02-26T00:11:22;91885.53;;;-7.67;81.38
83896;BME280;74045;42.812;74.638;2024-02-26T00:13:47;91916.34;;;-7.43;81.85
83896;BME280;74045;42.812;74.638;2024-02-26T00:16:13;91899.22;;;-7.47;81.67
83896;BME280;74045;42.812;74.638;2024-02-26T00:18:39;91905.81;;;-7.41;82.21
83896;BME280;74045;42.812;74.638;2024-02-26T00:21:05;91909.28;;;-7.27;82.24
83896;BME280;74045;42.812;74.638;2024-02-26T00:23:30;91904.59;;;-7.19;82.04
83896;BME280;74045;42.812;74.638;2024-02-26T00:25:57;91885.56;;;-7.18;82.87
83896;BME280;74045;42.812;74.638;2024-02-26T00:28:23;91905.69;;;-7.02;82.26
83896;BME280;74045;42.812;74.638;2024-02-26T00:30:50;91903.81;;;-6.96;81.84
83896;BME280;74045;42.812;74.638;2024-02-26T00:33:21;91912.03;;;-6.94;82.20
83896;BME280;74045;42.812;74.638;2024-02-26T00:35:47;91900.50;;;-6.96;82.17
83896;BME280;74045;42.812;74.638;2024-02-26T00:38:13;91877.47;;;-7.07;81.75
83896;BME280;74045;42.812;74.638;2024-02-26T00:40:39;91902.72;;;-6.90;81.87
83896;BME280;74045;42.812;74.638;2024-02-26T00:43:06;91877.69;;;-7.03;82.09
83896;BME280;74045;42.812;74.638;2024-02-26T00:45:32;91913.16;;;-6.81;81.47
83896;BME280;74045;42.812;74.638;2024-02-26T00:47:58;91922.16;;;-6.84;81.54
83896;BME280;74045;42.812;74.638;2024-02-26T00:50:26;91909.31;;;-6.84;81.24
83896;BME280;74045;42.812;74.638;2024-02-26T00:52:52;91908.19;;;-6.96;80.77
83896;BME280;74045;42.812;74.638;2024-02-26T00:55:18;91904.69;;;-7.06;81.28
83896;BME280;74045;42.812;74.638;2024-02-26T00:57:44;91912.13;;;-7.04;81.63
83896;BME280;74045;42.812;74.638;2024-02-26T01:00:10;91923.91;;;-7.03;81.86
83896;BME280;74045;42.812;74.638;2024-02-26T01:02:36;91896.28;;;-7.11;81.78
83896;BME280;74045;42.812;74.638;2024-02-26T01:05:02;91847.56;;;-7.40;81.56
83896;BME280;74045;42.812;74.638;2024-02-26T01:07:28;91919.81;;;-7.04;81.19
83896;BME280;74045;42.812;74.638;2024-02-26T01:09:54;91909.59;;;-7.09;81.57
83896;BME280;74045;42.812;74.638;2024-02-26T01:12:19;91902.75;;;-7.14;81.95
83896;BME280;74045;42.812;74.638;2024-02-26T01:14:45;91885.13;;;-7.26;82.32
83896;BME280;74045;42.812;74.638;2024-02-26T01:17:11;91905.22;;;-7.09;82.47
83896;BME280;74045;42.812;74.638;2024-02-26T01:19:36;91889.50;;;-7.02;81.28
83896;BME280;74045;42.812;74.638;2024-02-26T01:22:02;91889.28;;;-7.06;81.56
83896;BME280;74045;42.812;74.638;2024-02-26T01:24:29;91892.47;;;-7.14;81.34
83896;BME280;74045;42.812;74.638;2024-02-26T01:26:55;91884.53;;;-7.17;82.04
83896;BME280;74045;42.812;74.638;2024-02-26T01:29:20;91908.63;;;-7.13;82.39
83896;BME280;74045;42.812;74.638;2024-02-26T01:31:46;91802.56;;;-7.81;83.03
83896;BME280;74045;42.812;74.638;2024-02-26T01:34:12;91800.22;;;-7.77;82.68
83896;BME280;74045;42.812;74.638;2024-02-26T01:36:38;91888.09;;;-7.13;82.69
83896;BME280;74045;42.812;74.638;2024-02-26T01:39:04;91859.84;;;-7.37;82.09
83896;BME280;74045;42.812;74.638;2024-02-26T01:41:29;91907.31;;;-7.11;82.50
83896;BME280;74045;42.812;74.638;2024-02-26T01:43:55;91901.41;;;-7.11;82.73
83896;BME280;74045;42.812;74.638;2024-02-26T01:46:21;91909.06;;;-7.06;82.51
83896;BME280;74045;42.812;74.638;2024-02-26T01:48:48;91906.03;;;-7.08;82.76
83896;BME280;74045;42.812;74.638;2024-02-26T01:51:15;91904.97;;;-7.07;82.31
83896;BME280;74045;42.812;74.638;2024-02-26T01:53:43;91889.19;;;-7.19;82.50
83896;BME280;74045;42.812;74.638;2024-02-26T01:56:09;91632.66;;;-8.88;82.14
83896;BME280;74045;42.812;74.638;2024-02-26T01:58:36;91909.28;;;-7.03;82.68
83896;BME280;74045;42.812;74.638;2024-02-26T02:01:02;91915.19;;;-7.02;83.40
83896;BME280;74045;42.812;74.638;2024-02-26T02:03:28;91891.63;;;-7.09;83.76
83896;BME280;74045;42.812;74.638;2024-02-26T02:05:55;91929.41;;;-6.86;83.46
83896;BME280;74045;42.812;74.638;2024-02-26T02:08:21;91917.53;;;-6.82;83.17
83896;BME280;74045;42.812;74.638;2024-02-26T02:10:49;91910.38;;;-6.85;82.81
83896;BME280;74045;42.812;74.638;2024-02-26T02:13:15;91919.03;;;-6.81;82.72
83896;BME280;74045;42.812;74.638;2024-02-26T02:15:41;91915.72;;;-6.81;82.57
83896;BME280;74045;42.812;74.638;2024-02-26T02:18:07;91921.09;;;-6.78;82.44
83896;BME280;74045;42.812;74.638;2024-02-26T02:20:33;91905.22;;;-6.85;82.05
83896;BME280;74045;42.812;74.638;2024-02-26T02:22:59;91923.38;;;-6.76;82.30
83896;BME280;74045;42.812;74.638;2024-02-26T02:25:25;91913.84;;;-6.76;82.68
83896;BME280;74045;42.812;74.638;2024-02-26T02:27:53;91912.34;;;-6.77;82.57
83896;BME280;74045;42.812;74.638;2024-02-26T02:30:21;91906.34;;;-6.91;82.73
83896;BME280;74045;42.812;74.638;2024-02-26T02:32:47;91900.84;;;-6.84;82.29
83896;BME280;74045;42.812;74.638;2024-02-26T02:35:13;91914.09;;;-6.72;81.99
83896;BME280;74045;42.812;74.638;2024-02-26T02:37:39;91912.38;;;-6.82;82.64
83896;BME280;74045;42.812;74.638;2024-02-26T02:40:05;91825.50;;;-7.41;82.22
83896;BME280;74045;42.812;74.638;2024-02-26T02:42:31;91926.75;;;-6.81;82.17
83896;BME280;74045;42.812;74.638;2024-02-26T02:44:57;91927.31;;;-6.84;81.99
83896;BME280;74045;42.812;74.638;2024-02-26T02:47:22;91903.91;;;-7.06;82.09
83896;BME280;74045;42.812;74.638;2024-02-26T02:49:51;91828.00;;;-7.60;82.54
83896;BME280;74045;42.812;74.638;2024-02-26T02:52:16;91927.91;;;-6.92;82.99
83896;BME280;74045;42.812;74.638;2024-02-26T02:54:42;91901.16;;;-7.10;82.89
83896;BME280;74045;42.812;74.638;2024-02-26T02:57:08;91947.31;;;-6.81;82.65
83896;BME280;74045;42.812;74.638;2024-02-26T02:59:35;91931.25;;;-6.91;82.41
83896;BME280;74045;42.812;74.638;2024-02-26T03:02:01;91950.09;;;-6.77;83.15
83896;BME280;74045;42.812;74.638;2024-02-26T03:04:27;91943.56;;;-6.69;82.33
83896;BME280;74045;42.812;74.638;2024-02-26T03:06:52;91934.09;;;-6.69;82.49
83896;BME280;74045;42.812;74.638;2024-02-26T03:09:18;91929.81;;;-6.79;82.20
83896;BME280;74045;42.812;74.638;2024-02-26T03:11:44;91931.84;;;-6.76;82.35
83896;BME280;74045;42.812;74.638;2024-02-26T03:14:09;91941.50;;;-6.67;82.38
83896;BME280;74045;42.812;74.638;2024-02-26T03:16:35;91934.56;;;-6.67;82.45
83896;BME280;74045;42.812;74.638;2024-02-26T03:19:01;91936.88;;;-6.65;81.96
83896;BME280;74045;42.812;74.638;2024-02-26T03:21:28;91924.06;;;-6.70;81.83
83896;BME280;74045;42.812;74.638;2024-02-26T03:23:54;91845.66;;;-7.30;81.85
83896;BME280;74045;42.812;74.638;2024-02-26T03:26:20;91923.66;;;-6.78;82.31
83896;BME280;74045;42.812;74.638;2024-02-26T03:28:47;91928.31;;;-6.80;82.14
83896;BME280;74045;42.812;74.638;2024-02-26T03:31:13;91930.38;;;-6.82;81.98
83896;BME280;74045;42.812;74.638;2024-02-26T03:33:39;91936.00;;;-6.80;82.31
83896;BME280;74045;42.812;74.638;2024-02-26T03:36:05;91836.53;;;-7.41;82.63
83896;BME280;74045;42.812;74.638;2024-02-26T03:38:33;91953.09;;;-6.70;82.45
83896;BME280;74045;42.812;74.638;2024-02-26T03:40:58;91908.50;;;-6.79;82.36
83896;BME280;74045;42.812;74.638;2024-02-26T03:43:24;91941.72;;;-6.64;82.04
83896;BME280;74045;42.812;74.638;2024-02-26T03:45:50;91945.53;;;-6.61;82.12
83896;BME280;74045;42.812;74.638;2024-02-26T03:48:16;91924.84;;;-6.70;82.04
83896;BME280;74045;42.812;74.638;2024-02-26T03:50:42;91931.78;;;-6.70;82.07
83896;BME280;74045;42.812;74.638;2024-02-26T03:53:07;91951.22;;;-6.64;82.27
83896;BME280;74045;42.812;74.638;2024-02-26T03:55:35;91944.03;;;-6.62;82.01
83896;BME280;74045;42.812;74.638;2024-02-26T03:58:00;91921.50;;;-6.70;82.47
83896;BME280;74045;42.812;74.638;2024-02-26T04:00:26;91949.81;;;-6.51;81.92
83896;BME280;74045;42.812;74.638;2024-02-26T04:02:54;91925.00;;;-6.61;82.04
83896;BME280;74045;42.812;74.638;2024-02-26T04:05:20;91944.38;;;-6.50;81.76
83896;BME280;74045;42.812;74.638;2024-02-26T04:07:46;91873.56;;;-6.99;81.92
83896;BME280;74045;42.812;74.638;2024-02-26T04:10:12;91903.81;;;-6.72;82.03
83896;BME280;74045;42.812;74.638;2024-02-26T04:12:42;91843.59;;;-7.09;82.28
83896;BME280;74045;42.812;74.638;2024-02-26T04:15:09;91849.44;;;-7.03;81.91
83896;BME280;74045;42.812;74.638;2024-02-26T04:17:36;91941.44;;;-6.38;82.33
83896;BME280;74045;42.812;74.638;2024-02-26T04:20:02;91941.03;;;-6.26;82.02
83896;BME280;74045;42.812;74.638;2024-02-26T04:22:28;91939.16;;;-6.21;82.14
83896;BME280;74045;42.812;74.638;2024-02-26T04:24:54;91866.72;;;-6.66;82.10
83896;BME280;74045;42.812;74.638;2024-02-26T04:27:20;91938.16;;;-6.06;82.35
83896;BME280;74045;42.812;74.638;2024-02-26T04:29:46;91937.28;;;-5.96;81.90
83896;BME280;74045;42.812;74.638;2024-02-26T04:32:12;91821.38;;;-6.57;81.73
83896;BME280;74045;42.812;74.638;2024-02-26T04:34:37;91843.47;;;-6.37;81.84
83896;BME280;74045;42.812;74.638;2024-02-26T04:37:04;91925.88;;;-5.76;81.42
83896;BME280;74045;42.812;74.638;2024-02-26T04:39:29;91915.09;;;-5.78;81.01
83896;BME280;74045;42.812;74.638;2024-02-26T04:41:55;91945.84;;;-5.68;80.92
83896;BME280;74045;42.812;74.638;2024-02-26T04:44:21;91900.47;;;-5.97;80.96
83896;BME280;74045;42.812;74.638;2024-02-26T04:46:47;91943.91;;;-5.76;80.90
83896;BME280;74045;42.812;74.638;2024-02-26T04:49:12;91938.19;;;-5.73;81.11
83896;BME280;74045;42.812;74.638;2024-02-26T04:51:38;91937.69;;;-5.75;81.24
83896;BME280;74045;42.812;74.638;2024-02-26T04:54:04;91932.47;;;-5.70;81.07
83896;BME280;74045;42.812;74.638;2024-02-26T04:56:30;91879.09;;;-6.11;80.58
83896;BME280;74045;42.812;74.638;2024-02-26T04:58:56;91946.41;;;-5.71;80.67
83896;BME280;74045;42.812;74.638;2024-02-26T05:01:21;91872.00;;;-6.19;80.49
83896;BME280;74045;42.812;74.638;2024-02-26T05:03:48;91942.63;;;-5.60;80.10
83896;BME280;74045;42.812;74.638;2024-02-26T05:06:15;91941.00;;;-5.56;80.25
83896;BME280;74045;42.812;74.638;2024-02-26T05:08:41;91944.38;;;-5.42;80.40
83896;BME280;74045;42.812;74.638;2024-02-26T05:11:07;91931.91;;;-5.34;80.00
83896;BME280;74045;42.812;74.638;2024-02-26T05:13:33;91937.06;;;-5.34;79.99
83896;BME280;74045;42.812;74.638;2024-02-26T05:15:58;91949.56;;;-5.28;80.08
83896;BME280;74045;42.812;74.638;2024-02-26T05:18:24;91930.47;;;-5.27;79.85
83896;BME280;74045;42.812;74.638;2024-02-26T05:20:50;91936.88;;;-5.24;80.46
83896;BME280;74045;42.812;74.638;2024-02-26T05:23:15;91937.84;;;-5.20;80.33
83896;BME280;74045;42.812;74.638;2024-02-26T05:25:41;91937.56;;;-5.19;79.86
83896;BME280;74045;42.812;74.638;2024-02-26T05:28:07;91931.28;;;-5.12;79.42
83896;BME280;74045;42.812;74.638;2024-02-26T05:30:33;91925.13;;;-5.30;79.61
83896;BME280;74045;42.812;74.638;2024-02-26T05:32:59;91915.44;;;-5.20;79.59
83896;BME280;74045;42.812;74.638;2024-02-26T05:35:25;91944.47;;;-5.00;79.16
83896;BME280;74045;42.812;74.638;2024-02-26T05:37:53;91912.09;;;-5.20;79.18
83896;BME280;74045;42.812;74.638;2024-02-26T05:40:19;91917.53;;;-5.08;78.75
83896;BME280;74045;42.812;74.638;2024-02-26T05:42:45;91938.34;;;-4.90;79.50
83896;BME280;74045;42.812;74.638;2024-02-26T05:45:11;91938.75;;;-4.83;79.01
83896;BME280;74045;42.812;74.638;2024-02-26T05:47:36;91937.78;;;-4.87;78.35
83896;BME280;74045;42.812;74.638;2024-02-26T05:50:09;91927.47;;;-4.87;78.62
83896;BME280;74045;42.812;74.638;2024-02-26T05:52:37;91858.19;;;-5.30;78.84
83896;BME280;74045;42.812;74.638;2024-02-26T05:55:04;91935.50;;;-4.61;78.72
83896;BME280;74045;42.812;74.638;2024-02-26T05:57:31;91933.97;;;-4.48;78.07
83896;BME280;74045;42.812;74.638;2024-02-26T05:59:57;91939.31;;;-4.45;77.68
83896;BME280;74045;42.812;74.638;2024-02-26T06:02:26;91938.34;;;-4.49;77.51
83896;BME280;74045;42.812;74.638;2024-02-26T06:04:51;91932.06;;;-4.57;77.67
83896;BME280;74045;42.812;74.638;2024-02-26T06:07:17;91930.34;;;-4.47;77.39
83896;BME280;74045;42.812;74.638;2024-02-26T06:09:43;91944.66;;;-4.41;77.40
83896;BME280;74045;42.812;74.638;2024-02-26T06:12:09;91945.59;;;-4.37;77.71
83896;BME280;74045;42.812;74.638;2024-02-26T06:14:34;91931.66;;;-4.36;77.08
83896;BME280;74045;42.812;74.638;2024-02-26T06:17:03;91939.50;;;-4.41;76.82
83896;BME280;74045;42.812;74.638;2024-02-26T06:19:28;91943.31;;;-4.25;77.52
83896;BME280;74045;42.812;74.638;2024-02-26T06:21:54;91937.75;;;-4.32;77.07
83896;BME280;74045;42.812;74.638;2024-02-26T06:24:20;91936.25;;;-4.33;76.85
83896;BME280;74045;42.812;74.638;2024-02-26T06:26:47;91937.50;;;-4.31;76.63
83896;BME280;74045;42.812;74.638;2024-02-26T06:29:14;91831.69;;;-5.03;76.62
83896;BME280;74045;42.812;74.638;2024-02-26T06:31:40;91924.38;;;-4.34;76.86
83896;BME280;74045;42.812;74.638;2024-02-26T06:34:05;91933.75;;;-4.38;76.77
83896;BME280;74045;42.812;74.638;2024-02-26T06:36:31;91926.44;;;-4.45;76.56
83896;BME280;74045;42.812;74.638;2024-02-26T06:38:57;91922.13;;;-4.50;77.10
83896;BME280;74045;42.812;74.638;2024-02-26T06:41:23;91928.22;;;-4.45;76.87
83896;BME280;74045;42.812;74.638;2024-02-26T06:43:53;91898.19;;;-4.64;76.77
83896;BME280;74045;42.812;74.638;2024-02-26T06:46:19;91931.28;;;-4.43;77.32
83896;BME280;74045;42.812;74.638;2024-02-26T06:48:47;91932.25;;;-4.39;77.08
83896;BME280;74045;42.812;74.638;2024-02-26T06:51:13;91932.81;;;-4.42;76.52
83896;BME280;74045;42.812;74.638;2024-02-26T06:53:39;91922.78;;;-4.44;77.06
83896;BME280;74045;42.812;74.638;2024-02-26T06:56:05;91919.63;;;-4.41;76.71
83896;BME280;74045;42.812;74.638;2024-02-26T06:58:31;91823.06;;;-4.99;76.61
83896;BME280;74045;42.812;74.638;2024-02-26T07:00:56;91922.28;;;-4.32;76.61
83896;BME280;74045;42.812;74.638;2024-02-26T07:03:22;91906.91;;;-4.37;76.57
83896;BME280;74045;42.812;74.638;2024-02-26T07:05:49;91919.22;;;-4.34;76.40
83896;BME280;74045;42.812;74.638;2024-02-26T07:08:15;91904.16;;;-4.41;76.52
83896;BME280;74045;42.812;74.638;2024-02-26T07:10:41;91915.78;;;-4.30;76.08
83896;BME280;74045;42.812;74.638;2024-02-26T07:13:08;91914.84;;;-4.20;76.62
83896;BME280;74045;42.812;74.638;2024-02-26T07:15:34;91804.38;;;-4.90;75.91
83896;BME280;74045;42.812;74.638;2024-02-26T07:18:00;91886.34;;;-4.29;76.06
83896;BME280;74045;42.812;74.638;2024-02-26T07:20:31;91901.44;;;-4.22;76.05
83896;BME280;74045;42.812;74.638;2024-02-26T07:22:57;91824.03;;;-4.81;76.78
83896;BME280;74045;42.812;74.638;2024-02-26T07:25:23;91895.53;;;-4.22;76.90
83896;BME280;74045;42.812;74.638;2024-02-26T07:27:52;91894.91;;;-4.06;76.34
83896;BME280;74045;42.812;74.638;2024-02-26T07:30:18;91902.34;;;-4.04;75.49
83896;BME280;74045;42.812;74.638;2024-02-26T07:32:44;91882.66;;;-4.00;76.12
83896;BME280;74045;42.812;74.638;2024-02-26T07:35:10;91883.66;;;-3.87;76.26
83896;BME280;74045;42.812;74.638;2024-02-26T07:37:35;91895.00;;;-3.74;76.06
83896;BME280;74045;42.812;74.638;2024-02-26T07:40:01;91890.94;;;-3.89;75.49
83896;BME280;74045;42.812;74.638;2024-02-26T07:42:28;91891.63;;;-3.97;75.40
83896;BME280;74045;42.812;74.638;2024-02-26T07:44:54;91888.91;;;-3.92;75.66
83896;BME280;74045;42.812;74.638;2024-02-26T07:47:21;91839.88;;;-4.15;75.57
83896;BME280;74045;42.812;74.638;2024-02-26T07:49:47;91844.00;;;-4.14;75.48
83896;BME280;74045;42.812;74.638;2024-02-26T07:52:12;91873.31;;;-3.87;75.35
83896;BME280;74045;42.812;74.638;2024-02-26T07:54:38;91823.94;;;-4.39;75.71
83896;BME280;74045;42.812;74.638;2024-02-26T07:57:04;91828.13;;;-4.43;75.70
83896;BME280;74045;42.812;74.638;2024-02-26T07:59:31;91886.00;;;-3.99;76.02
83896;BME280;74045;42.812;74.638;2024-02-26T08:01:57;91789.22;;;-4.56;75.80
83896;BME280;74045;42.812;74.638;2024-02-26T08:04:22;91880.84;;;-3.99;76.21
83896;BME280;74045;42.812;74.638;2024-02-26T08:06:48;91837.59;;;-4.16;75.89
83896;BME280;74045;42.812;74.638;2024-02-26T08:09:14;91884.13;;;-3.85;75.19
83896;BME280;74045;42.812;74.638;2024-02-26T08:11:40;91791.09;;;-4.47;74.84
83896;BME280;74045;42.812;74.638;2024-02-26T08:14:06;91882.63;;;-3.86;75.15
83896;BME280;74045;42.812;74.638;2024-02-26T08:16:32;91860.72;;;-4.11;75.20
83896;BME280;74045;42.812;74.638;2024-02-26T08:18:57;91885.41;;;-3.96;75.58
83896;BME280;74045;42.812;74.638;2024-02-26T08:21:23;91873.69;;;-4.02;74.98
83896;BME280;74045;42.812;74.638;2024-02-26T08:23:49;91883.13;;;-3.98;75.33
83896;BME280;74045;42.812;74.638;2024-02-26T08:26:15;91883.06;;;-4.07;75.24
83896;BME280;74045;42.812;74.638;2024-02-26T08:28:40;91877.06;;;-4.16;75.27
83896;BME280;74045;42.812;74.638;2024-02-26T08:31:06;91875.56;;;-4.17;75.83
83896;BME280;74045;42.812;74.638;2024-02-26T08:33:32;91881.00;;;-4.18;76.28
83896;BME280;74045;42.812;74.638;2024-02-26T08:36:04;91878.88;;;-4.16;76.27
83896;BME280;74045;42.812;74.638;2024-02-26T08:38:30;91854.94;;;-4.31;76.48
83896;BME280;74045;42.812;74.638;2024-02-26T08:40:56;91876.41;;;-4.21;75.89
83896;BME280;74045;42.812;74.638;2024-02-26T08:43:21;91797.25;;;-4.71;76.09
83896;BME280;74045;42.812;74.638;2024-02-26T08:45:47;91878.41;;;-4.18;76.13
83896;BME280;74045;42.812;74.638;2024-02-26T08:48:13;91869.91;;;-4.19;76.43
83896;BME280;74045;42.812;74.638;2024-02-26T08:50:38;91873.03;;;-4.08;76.29
83896;BME280;74045;42.812;74.638;2024-02-26T08:53:05;91869.97;;;-4.10;75.80
83896;BME280;74045;42.812;74.638;2024-02-26T08:55:32;91863.59;;;-4.13;75.36
83896;BME280;74045;42.812;74.638;2024-02-26T08:57:59;91854.06;;;-4.26;75.71
83896;BME280;74045;42.812;74.638;2024-02-26T09:00:24;91869.91;;;-4.19;75.55
83896;BME280;74045;42.812;74.638;2024-02-26T09:02:50;91784.97;;;-4.74;76.23
83896;BME280;74045;42.812;74.638;2024-02-26T09:05:16;91870.72;;;-4.32;76.12
83896;BME280;74045;42.812;74.638;2024-02-26T09:07:42;91864.16;;;-4.52;76.57
83896;BME280;74045;42.812;74.638;2024-02-26T09:10:08;91867.16;;;-4.59;77.34
83896;BME280;74045;42.812;74.638;2024-02-26T09:12:37;91843.66;;;-4.71;76.84
83896;BME280;74045;42.812;74.638;2024-02-26T09:15:03;91859.13;;;-4.71;77.42
83896;BME280;74045;42.812;74.638;2024-02-26T09:17:29;91875.06;;;-4.69;77.15
83896;BME280;74045;42.812;74.638;2024-02-26T09:19:55;91760.81;;;-5.42;77.09
83896;BME280;74045;42.812;74.638;2024-02-26T09:22:21;91769.31;;;-5.28;77.04
83896;BME280;74045;42.812;74.638;2024-02-26T09:24:46;91858.34;;;-4.58;77.08
83896;BME280;74045;42.812;74.638;2024-02-26T09:27:12;91869.63;;;-4.54;77.15
83896;BME280;74045;42.812;74.638;2024-02-26T09:29:38;91837.94;;;-4.68;77.13
83896;BME280;74045;42.812;74.638;2024-02-26T09:32:04;91862.63;;;-4.39;77.42
83896;BME280;74045;42.812;74.638;2024-02-26T09:34:29;91864.78;;;-4.33;76.85
83896;BME280;74045;42.812;74.638;2024-02-26T09:36:55;91856.63;;;-4.26;76.76
83896;BME280;74045;42.812;74.638;2024-02-26T09:39:21;91872.59;;;-4.24;76.71
83896;BME280;74045;42.812;74.638;2024-02-26T09:41:47;91833.97;;;-4.52;76.84
83896;BME280;74045;42.812;74.638;2024-02-26T09:44:19;91851.94;;;-4.46;76.78
83896;BME280;74045;42.812;74.638;2024-02-26T09:46:47;91869.97;;;-4.46;76.39
83896;BME280;74045;42.812;74.638;2024-02-26T09:49:15;91856.25;;;-4.56;76.42
83896;BME280;74045;42.812;74.638;2024-02-26T09:51:42;91853.28;;;-4.63;76.54
83896;BME280;74045;42.812;74.638;2024-02-26T09:54:12;91876.28;;;-4.53;76.39
83896;BME280;74045;42.812;74.638;2024-02-26T09:56:42;91865.59;;;-4.60;76.44
83896;BME280;74045;42.812;74.638;2024-02-26T09:59:11;91858.28;;;-4.80;76.84
83896;BME280;74045;42.812;74.638;2024-02-26T10:01:41;91875.56;;;-4.67;76.90
83896;BME280;74045;42.812;74.638;2024-02-26T10:04:08;91854.38;;;-4.91;77.19
83896;BME280;74045;42.812;74.638;2024-02-26T10:06:37;91869.16;;;-4.83;77.12
83896;BME280;74045;42.812;74.638;2024-02-26T10:09:03;91860.03;;;-5.03;77.24
83896;BME280;74045;42.812;74.638;2024-02-26T10:11:32;91872.91;;;-5.03;77.76
83896;BME280;74045;42.812;74.638;2024-02-26T10:13:58;91868.09;;;-5.10;77.76
83896;BME280;74045;42.812;74.638;2024-02-26T10:16:25;91875.38;;;-5.12;78.51
83896;BME280;74045;42.812;74.638;2024-02-26T10:18:52;91819.84;;;-5.46;78.15
83896;BME280;74045;42.812;74.638;2024-02-26T10:21:22;91880.44;;;-5.07;78.35
83896;BME280;74045;42.812;74.638;2024-02-26T10:23:49;91871.34;;;-5.04;77.69
83896;BME280;74045;42.812;74.638;2024-02-26T10:26:15;91790.84;;;-5.65;77.70
83896;BME280;74045;42.812;74.638;2024-02-26T10:28:43;91844.38;;;-5.34;77.98
83896;BME280;74045;42.812;74.638;2024-02-26T10:31:10;91782.81;;;-5.77;77.34
83896;BME280;74045;42.812;74.638;2024-02-26T10:33:37;91877.84;;;-5.21;77.90
83896;BME280;74045;42.812;74.638;2024-02-26T10:36:07;91872.50;;;-5.24;78.50
83896;BME280;74045;42.812;74.638;2024-02-26T10:38:36;91838.53;;;-5.54;78.28
83896;BME280;74045;42.812;74.638;2024-02-26T10:41:13;91865.53;;;-5.37;78.73
83896;BME280;74045;42.812;74.638;2024-02-26T10:43:43;91864.59;;;-5.28;78.42
83896;BME280;74045;42.812;74.638;2024-02-26T10:46:09;91866.97;;;-5.31;77.97
83896;BME280;74045;42.812;74.638;2024-02-26T10:48:35;91871.16;;;-5.35;78.29
83896;BME280;74045;42.812;74.638;2024-02-26T10:51:01;91860.44;;;-5.56;78.77
83896;BME280;74045;42.812;74.638;2024-02-26T10:53:29;91756.09;;;-6.23;78.87
83896;BME280;74045;42.812;74.638;2024-02-26T10:56:04;91859.69;;;-5.57;78.77
83896;BME280;74045;42.812;74.638;2024-02-26T10:58:33;91837.34;;;-5.75;79.30
83896;BME280;74045;42.812;74.638;2024-02-26T11:00:59;91869.00;;;-5.61;78.71
83896;BME280;74045;42.812;74.638;2024-02-26T11:03:26;91860.25;;;-5.60;79.11
83896;BME280;74045;42.812;74.638;2024-02-26T11:05:52;91856.22;;;-5.66;78.92
83896;BME280;74045;42.812;74.638;2024-02-26T11:08:21;91851.56;;;-5.64;79.12
83896;BME280;74045;42.812;74.638;2024-02-26T11:10:52;91864.63;;;-5.60;78.87
83896;BME280;74045;42.812;74.638;2024-02-26T11:13:19;91857.19;;;-5.62;79.06
83896;BME280;74045;42.812;74.638;2024-02-26T11:15:48;91835.53;;;-5.75;79.15
83896;BME280;74045;42.812;74.638;2024-02-26T11:18:18;91837.34;;;-5.75;79.53
83896;BME280;74045;42.812;74.638;2024-02-26T11:20:45;91840.50;;;-5.65;79.34
83896;BME280;74045;42.812;74.638;2024-02-26T11:23:11;91852.44;;;-5.55;79.32
83896;BME280;74045;42.812;74.638;2024-02-26T11:25:37;91857.78;;;-5.51;79.69
83896;BME280;74045;42.812;74.638;2024-02-26T11:28:08;91859.91;;;-5.40;79.53
83896;BME280;74045;42.812;74.638;2024-02-26T11:30:38;91855.31;;;-5.43;78.88
83896;BME280;74045;42.812;74.638;2024-02-26T11:33:09;91862.97;;;-5.37;78.92
83896;BME280;74045;42.812;74.638;2024-02-26T11:35:39;91873.28;;;-5.37;79.02
83896;BME280;74045;42.812;74.638;2024-02-26T11:38:05;91854.34;;;-5.47;79.06
83896;BME280;74045;42.812;74.638;2024-02-26T11:40:33;91856.56;;;-5.54;79.34
83896;BME280;74045;42.812;74.638;2024-02-26T11:43:04;91869.41;;;-5.54;79.18
83896;BME280;74045;42.812;74.638;2024-02-26T11:48:20;91857.00;;;-5.66;79.45
83896;BME280;74045;42.812;74.638;2024-02-26T11:50:55;91869.38;;;-5.68;79.66
83896;BME280;74045;42.812;74.638;2024-02-26T11:53:31;91863.06;;;-5.75;79.60
83896;BME280;74045;42.812;74.638;2024-02-26T11:58:39;91802.56;;;-6.19;78.92
83896;BME280;74045;42.812;74.638;2024-02-26T12:01:14;91890.81;;;-5.72;79.91
83896;BME280;74045;42.812;74.638;2024-02-26T12:03:54;91871.94;;;-5.81;79.70
83896;BME280;74045;42.812;74.638;2024-02-26T12:06:20;91886.66;;;-5.68;78.91
83896;BME280;74045;42.812;74.638;2024-02-26T12:08:46;91868.34;;;-5.99;79.14
83896;BME280;74045;42.812;74.638;2024-02-26T12:11:15;91894.88;;;-5.85;79.37
83896;BME280;74045;42.812;74.638;2024-02-26T12:13:47;91902.38;;;-5.89;79.49
83896;BME280;74045;42.812;74.638;2024-02-26T12:16:40;91899.81;;;-5.89;79.12
83896;BME280;74045;42.812;74.638;2024-02-26T12:19:09;91885.78;;;-6.10;79.51
83896;BME280;74045;42.812;74.638;2024-02-26T12:21:36;91857.06;;;-6.36;79.11
83896;BME280;74045;42.812;74.638;2024-02-26T12:24:15;91878.69;;;-6.37;79.58
83896;BME280;74045;42.812;74.638;2024-02-26T12:26:43;91882.91;;;-6.27;79.73
83896;BME280;74045;42.812;74.638;2024-02-26T12:29:10;91893.41;;;-6.24;79.63
83896;BME280;74045;42.812;74.638;2024-02-26T12:31:37;91883.00;;;-6.33;80.22
83896;BME280;74045;42.812;74.638;2024-02-26T12:34:04;91796.91;;;-6.92;80.01
83896;BME280;74045;42.812;74.638;2024-02-26T12:36:30;91824.44;;;-6.73;79.91
83896;BME280;74045;42.812;74.638;2024-02-26T12:38:56;91912.38;;;-6.20;79.83
83896;BME280;74045;42.812;74.638;2024-02-26T12:41:22;91874.31;;;-6.37;80.49
83896;BME280;74045;42.812;74.638;2024-02-26T12:43:48;91890.72;;;-6.33;80.98
83896;BME280;74045;42.812;74.638;2024-02-26T12:46:15;91876.94;;;-6.23;80.97
83896;BME280;74045;42.812;74.638;2024-02-26T12:48:46;91903.97;;;-6.06;80.51
83896;BME280;74045;42.812;74.638;2024-02-26T12:51:16;91902.44;;;-6.07;80.31
83896;BME280;74045;42.812;74.638;2024-02-26T12:53:44;91892.38;;;-6.04;79.60